createdAt,value
2022-11-10T19:31:10.546Z,2.30
2022-11-10T19:32:10.383Z,3.40
2022-11-10T19:33:10.329Z,3.00
2022-11-10T19:34:10.286Z,3.10
2022-11-10T19:35:10.229Z,3.20
2022-11-10T19:36:10.185Z,2.90
2022-11-10T19:37:10.134Z,2.80
2022-11-10T19:38:10.085Z,3.10
2022-11-10T19:39:10.035Z,2.50
2022-11-10T19:40:09.991Z,3.20
2022-11-10T19:41:09.941Z,2.60
2022-11-10T19:42:09.892Z,2.90
2022-11-10T19:43:09.850Z,3.10
2022-11-10T19:44:09.801Z,2.80
2022-11-10T19:45:09.751Z,2.70
2022-11-10T19:46:09.711Z,2.80
2022-11-10T19:47:09.801Z,2.80
2022-11-10T19:48:09.614Z,2.70
2022-11-10T19:49:09.572Z,2.70
2022-11-10T19:50:09.522Z,2.70
2022-11-10T19:51:09.474Z,2.50
2022-11-10T19:52:09.431Z,2.80
2022-11-10T19:53:09.389Z,2.60
2022-11-10T19:54:09.340Z,3.00
2022-11-10T19:55:09.291Z,2.50
2022-11-10T19:56:09.246Z,2.70
2022-11-10T19:57:09.203Z,2.60
2022-11-10T19:58:09.157Z,2.80
2022-11-10T19:59:09.110Z,3.10
2022-11-10T20:00:09.079Z,2.70
2022-11-10T20:01:09.102Z,2.30
2022-11-10T20:02:08.977Z,2.70
2022-11-10T20:03:09.043Z,3.00
2022-11-10T20:04:08.891Z,2.90
2022-11-10T20:05:08.839Z,2.70
2022-11-10T20:06:08.795Z,3.30
2022-11-10T20:07:08.772Z,2.90
2022-11-10T20:08:09.930Z,3.10
2022-11-10T20:09:08.657Z,2.80
2022-11-10T20:10:08.615Z,3.00
2022-11-10T20:11:08.570Z,2.90
2022-11-10T20:12:08.524Z,3.00
2022-11-10T20:13:08.479Z,3.10
2022-11-10T20:14:08.446Z,2.80
2022-11-10T20:15:08.387Z,2.90
2022-11-10T20:16:08.349Z,2.70
2022-11-10T20:17:08.298Z,3.00
2022-11-10T20:19:08.323Z,3.00
2022-11-10T20:20:08.163Z,3.10
2022-11-10T20:21:08.122Z,3.50
2022-11-10T20:22:08.072Z,3.00
2022-11-10T20:24:07.985Z,3.10
2022-11-10T20:25:07.939Z,2.90
2022-11-10T20:26:07.902Z,2.90
2022-11-10T20:27:07.847Z,3.10
2022-11-10T20:28:07.807Z,2.80
2022-11-10T20:29:07.759Z,3.40
2022-11-10T20:30:07.715Z,3.20
2022-11-10T20:31:07.669Z,3.00
2022-11-10T20:32:07.625Z,2.90
2022-11-10T20:33:07.577Z,3.60
2022-11-10T20:34:07.535Z,2.90
2022-11-10T20:35:07.601Z,3.10
2022-11-10T20:36:07.446Z,3.00
2022-11-10T20:37:07.401Z,3.00
2022-11-10T20:38:07.358Z,3.10
2022-11-10T20:39:07.307Z,3.10
2022-11-10T20:40:23.950Z,3.20
2022-11-10T20:41:07.219Z,3.60
2022-11-10T20:42:07.176Z,2.80
2022-11-10T20:44:07.085Z,2.70
2022-11-10T20:45:07.044Z,2.90
2022-11-10T20:46:07.087Z,2.40
2022-11-10T20:47:06.993Z,2.80
2022-11-10T20:48:06.906Z,2.60
2022-11-10T20:49:06.861Z,2.90
2022-11-10T20:50:11.516Z,3.10
2022-11-10T20:51:06.886Z,2.80
2022-11-10T20:52:06.726Z,2.60
2022-11-10T20:54:06.640Z,2.70
2022-11-10T20:55:06.588Z,2.60
2022-11-10T20:56:06.549Z,2.60
2022-11-10T20:58:06.455Z,2.50
2022-11-10T20:59:06.415Z,2.90
2022-11-10T21:00:06.368Z,2.60
2022-11-10T21:01:06.325Z,2.70
2022-11-10T21:02:06.361Z,2.70
2022-11-10T21:03:06.232Z,2.70
2022-11-10T21:04:06.209Z,2.80
2022-11-10T21:05:06.143Z,2.60
2022-11-10T21:06:06.094Z,2.80
2022-11-10T21:07:06.225Z,2.80
2022-11-10T21:08:06.003Z,2.40
2022-11-10T21:09:05.962Z,2.40
2022-11-10T21:10:05.916Z,3.00
2022-11-10T21:11:05.873Z,2.70
2022-11-10T21:12:05.823Z,2.70
2022-11-10T21:13:05.783Z,2.70
2022-11-10T21:14:05.734Z,3.10
2022-11-10T21:15:05.693Z,2.90
2022-11-10T21:16:05.642Z,2.90
2022-11-10T21:17:05.606Z,2.90
2022-11-10T21:18:05.602Z,2.90
2022-11-10T21:19:05.572Z,2.80
2022-11-10T21:20:05.477Z,3.30
2022-11-10T21:21:05.423Z,2.90
2022-11-10T21:22:05.371Z,3.00
2022-11-10T21:23:05.443Z,2.70
2022-11-10T21:24:05.281Z,3.30
2022-11-10T21:25:05.239Z,2.90
2022-11-10T21:26:05.190Z,3.00
2022-11-10T21:27:05.147Z,3.30
2022-11-10T21:28:05.100Z,3.20
2022-11-10T21:29:05.056Z,3.20
2022-11-10T21:30:07.759Z,3.20
2022-11-10T21:31:04.969Z,3.00
2022-11-10T21:32:04.921Z,3.10
2022-11-10T21:33:04.882Z,2.90
2022-11-10T21:34:04.836Z,2.90
2022-11-10T21:35:04.785Z,2.90
2022-11-10T21:36:04.740Z,3.20
2022-11-10T21:37:04.694Z,3.10
2022-11-10T21:38:04.646Z,3.20
2022-11-10T21:39:04.719Z,3.40
2022-11-10T21:40:04.559Z,3.20
2022-11-10T21:41:04.511Z,3.80
2022-11-10T21:42:04.464Z,3.70
2022-11-10T21:43:04.426Z,3.10
2022-11-10T21:44:04.376Z,3.70
2022-11-10T21:45:04.330Z,3.60
2022-11-10T21:46:04.288Z,3.60
2022-11-10T21:47:04.240Z,4.00
2022-11-10T21:48:04.193Z,3.40
2022-11-10T21:49:07.631Z,3.60
2022-11-10T21:51:04.055Z,3.80
2022-11-10T21:52:04.013Z,3.60
2022-11-10T21:53:03.965Z,3.90
2022-11-10T21:54:03.920Z,4.00
2022-11-10T21:55:03.987Z,3.90
2022-11-10T21:57:03.831Z,3.60
2022-11-10T21:58:03.764Z,4.20
2022-11-10T21:59:03.737Z,4.10
2022-11-10T22:00:03.676Z,4.20
2022-11-10T22:01:03.965Z,4.60
2022-11-10T22:02:03.645Z,4.20
2022-11-10T22:03:03.523Z,4.00
2022-11-10T22:04:03.479Z,3.60
2022-11-10T22:05:03.422Z,4.10
2022-11-10T22:06:03.376Z,3.70
2022-11-10T22:07:03.551Z,4.30
2022-11-10T22:08:03.284Z,4.10
2022-11-10T22:09:03.239Z,4.10
2022-11-10T22:10:03.195Z,4.00
2022-11-10T22:11:03.264Z,3.90
2022-11-10T22:12:03.102Z,3.50
2022-11-10T22:13:03.058Z,4.30
2022-11-10T22:14:03.021Z,4.80
2022-11-10T22:15:02.970Z,3.80
2022-11-10T22:16:02.921Z,4.20
2022-11-10T22:17:02.880Z,3.70
2022-11-10T22:18:02.838Z,4.40
2022-11-10T22:19:02.800Z,4.50
2022-11-10T22:20:02.743Z,4.00
2022-11-10T22:21:02.694Z,4.50
2022-11-10T22:22:04.165Z,4.20
2022-11-10T22:23:02.608Z,4.30
2022-11-10T22:24:02.574Z,4.00
2022-11-10T22:25:02.529Z,4.00
2022-11-10T22:26:02.481Z,4.00
2022-11-10T22:27:02.533Z,4.00
2022-11-10T22:28:02.374Z,4.50
2022-11-10T22:29:02.335Z,4.10
2022-11-10T22:30:02.287Z,4.90
2022-11-10T22:31:02.240Z,4.30
2022-11-10T22:32:02.193Z,4.00
2022-11-10T22:33:02.196Z,4.00
2022-11-10T22:34:02.100Z,4.00
2022-11-10T22:35:02.057Z,3.80
2022-11-10T22:36:02.010Z,3.60
2022-11-10T22:37:01.967Z,4.20
2022-11-10T22:38:01.919Z,3.80
2022-11-10T22:39:03.560Z,3.80
2022-11-10T22:40:01.840Z,3.60
2022-11-10T22:41:01.783Z,4.30
2022-11-10T22:42:01.736Z,3.90
2022-11-10T22:43:01.823Z,3.90
2022-11-10T22:44:01.672Z,4.00
2022-11-10T22:45:01.607Z,3.70
2022-11-10T22:46:01.555Z,3.40
2022-11-10T22:47:01.514Z,4.10
2022-11-10T22:48:01.465Z,4.00
2022-11-10T22:49:01.418Z,4.10
2022-11-10T22:50:01.387Z,3.60
2022-11-10T22:51:01.328Z,4.50
2022-11-10T22:52:01.310Z,3.90
2022-11-10T22:53:01.236Z,3.80
2022-11-10T22:54:01.191Z,4.00
2022-11-10T22:55:01.146Z,3.80
2022-11-10T22:56:01.108Z,3.50
2022-11-10T22:57:01.056Z,3.80
2022-11-10T22:58:01.006Z,3.90
2022-11-10T22:59:01.081Z,3.50
2022-11-10T23:00:00.927Z,3.60
2022-11-10T23:01:00.890Z,3.70
2022-11-10T23:02:00.975Z,3.70
2022-11-10T23:03:00.780Z,3.70
2022-11-10T23:04:00.738Z,3.80
2022-11-10T23:05:00.688Z,3.60
2022-11-10T23:06:00.640Z,3.70
2022-11-10T23:07:00.663Z,3.70
2022-11-10T23:08:00.551Z,3.60
2022-11-10T23:09:00.508Z,3.70
2022-11-10T23:10:00.457Z,3.50
2022-11-10T23:11:00.414Z,3.40
2022-11-10T23:12:00.368Z,3.60
2022-11-10T23:13:00.323Z,3.60
2022-11-10T23:14:00.277Z,3.90
2022-11-10T23:15:00.349Z,3.30
2022-11-10T23:16:00.184Z,4.30
2022-11-10T23:17:00.140Z,3.50
2022-11-10T23:18:06.308Z,3.60
2022-11-10T23:19:00.051Z,3.70
2022-11-10T23:20:00.004Z,3.30
2022-11-10T23:20:59.959Z,3.30
2022-11-10T23:21:59.911Z,4.00
2022-11-10T23:22:59.868Z,3.60
2022-11-10T23:23:59.823Z,3.70
2022-11-10T23:24:59.782Z,3.70
2022-11-10T23:25:59.730Z,3.30
2022-11-10T23:26:59.688Z,3.50
2022-11-10T23:27:59.636Z,3.40
2022-11-10T23:28:59.593Z,3.10
2022-11-10T23:29:59.546Z,3.60
2022-11-10T23:30:59.616Z,3.90
2022-11-10T23:31:59.456Z,3.70
2022-11-10T23:32:59.410Z,3.30
2022-11-10T23:33:59.367Z,3.50
2022-11-10T23:34:59.318Z,3.50
2022-11-10T23:35:59.270Z,3.40
2022-11-10T23:36:59.261Z,3.50
2022-11-10T23:37:59.179Z,3.50
2022-11-10T23:38:59.141Z,3.50
2022-11-10T23:39:59.094Z,3.30
2022-11-10T23:40:59.043Z,3.70
2022-11-10T23:41:58.996Z,3.00
2022-11-10T23:42:58.982Z,3.60
2022-11-10T23:43:58.914Z,3.80
2022-11-10T23:44:58.866Z,3.30
2022-11-10T23:46:07.423Z,3.90
2022-11-10T23:46:58.892Z,3.20
2022-11-10T23:48:01.920Z,3.50
2022-11-10T23:48:58.681Z,3.50
2022-11-10T23:49:58.629Z,3.50
2022-11-10T23:50:58.587Z,3.50
2022-11-10T23:51:58.539Z,3.60
2022-11-10T23:52:58.495Z,3.20
2022-11-10T23:53:58.465Z,3.50
2022-11-10T23:54:58.402Z,3.40
2022-11-10T23:55:58.373Z,3.80
2022-11-10T23:56:58.311Z,3.80
2022-11-10T23:57:58.266Z,3.70
2022-11-10T23:58:58.223Z,3.90
2022-11-10T23:59:58.178Z,3.80
